createdAt,value
2022-11-30T00:00:03.164Z,101023.63
2022-11-30T00:02:30.547Z,101016.56
2022-11-30T00:04:57.310Z,101007.59
2022-11-30T00:07:24.086Z,101011.59
2022-11-30T00:09:50.981Z,101013.94
2022-11-30T00:12:17.707Z,101001.84
2022-11-30T00:14:44.515Z,101000.59
2022-11-30T00:17:11.368Z,101005.12
2022-11-30T00:19:38.116Z,100997.34
2022-11-30T00:22:04.844Z,101010.00
2022-11-30T00:24:31.511Z,101002.16
2022-11-30T00:26:58.245Z,101003.41
2022-11-30T00:29:24.904Z,100994.78
2022-11-30T00:31:51.647Z,100999.50
2022-11-30T00:34:18.337Z,101005.59
2022-11-30T00:36:48.583Z,101008.25
2022-11-30T00:39:18.249Z,101009.38
2022-11-30T00:41:45.032Z,101006.78
2022-11-30T00:44:11.831Z,101004.88
2022-11-30T00:46:38.514Z,101011.94
2022-11-30T00:49:05.254Z,101019.22
2022-11-30T00:51:31.977Z,101016.47
2022-11-30T00:53:58.709Z,101019.59
2022-11-30T00:56:25.410Z,101019.84
2022-11-30T00:58:52.176Z,101012.84
2022-11-30T01:01:19.038Z,101018.91
2022-11-30T01:03:45.985Z,101023.06
2022-11-30T01:06:12.753Z,101016.41
2022-11-30T01:08:39.631Z,101011.13
2022-11-30T01:11:08.808Z,101011.00
2022-11-30T01:13:37.633Z,101016.81
2022-11-30T01:16:15.925Z,101018.72
2022-11-30T01:18:43.058Z,101013.44
2022-11-30T01:21:10.932Z,101014.41
2022-11-30T01:23:37.708Z,101005.00
2022-11-30T01:26:04.438Z,101008.38
2022-11-30T01:28:31.174Z,100998.44
2022-11-30T01:30:58.830Z,101000.31
2022-11-30T01:33:25.624Z,101001.59
2022-11-30T01:36:02.768Z,101002.50
2022-11-30T01:38:37.510Z,101000.16
2022-11-30T01:41:04.997Z,101008.31
2022-11-30T01:43:45.494Z,101004.94
2022-11-30T01:46:32.604Z,101006.78
2022-11-30T01:49:11.692Z,101009.66
2022-11-30T01:51:44.865Z,101017.59
2022-11-30T01:54:13.194Z,101016.37
2022-11-30T01:56:43.179Z,101012.72
2022-11-30T01:59:10.466Z,101009.91
2022-11-30T02:01:37.322Z,101000.72
2022-11-30T02:04:10.299Z,100994.44
2022-11-30T02:06:37.027Z,100996.34
2022-11-30T02:09:03.741Z,100994.09
2022-11-30T02:11:30.758Z,100999.03
2022-11-30T02:13:57.470Z,100995.16
2022-11-30T02:16:27.303Z,101004.00
2022-11-30T02:18:54.132Z,100999.97
2022-11-30T02:21:40.407Z,100992.87
2022-11-30T02:24:19.272Z,100990.78
2022-11-30T02:26:58.506Z,100987.09
2022-11-30T02:29:34.318Z,100986.25
2022-11-30T02:32:10.479Z,100990.53
2022-11-30T02:34:38.177Z,100982.03
2022-11-30T02:37:05.894Z,100971.31
2022-11-30T02:39:32.554Z,100964.31
2022-11-30T02:41:59.193Z,100971.38
2022-11-30T02:44:26.746Z,100971.31
2022-11-30T02:47:12.281Z,100974.12
2022-11-30T02:49:49.280Z,100970.16
2022-11-30T02:52:16.604Z,100973.06
2022-11-30T02:54:43.490Z,100969.03
2022-11-30T02:57:10.194Z,100979.81
2022-11-30T02:59:37.216Z,100978.59
2022-11-30T03:02:03.950Z,100975.84
2022-11-30T03:04:31.174Z,100988.31
2022-11-30T03:06:57.922Z,100973.13
2022-11-30T03:09:24.581Z,100981.75
2022-11-30T03:11:51.631Z,100989.84
2022-11-30T03:14:19.203Z,100991.91
2022-11-30T03:16:45.925Z,100989.28
2022-11-30T03:19:12.934Z,100976.37
2022-11-30T03:21:39.734Z,100980.31
2022-11-30T03:24:06.646Z,100978.53
2022-11-30T03:26:33.380Z,100966.31
2022-11-30T03:29:00.124Z,100960.56
2022-11-30T03:31:27.043Z,100970.06
2022-11-30T03:33:53.857Z,100977.16
2022-11-30T03:36:20.676Z,100977.41
2022-11-30T03:38:48.103Z,100980.00
2022-11-30T03:41:17.587Z,100981.22
2022-11-30T03:43:44.814Z,100978.44
2022-11-30T03:46:11.955Z,100978.09
2022-11-30T03:48:38.823Z,100981.97
2022-11-30T03:51:06.018Z,100992.87
2022-11-30T03:53:32.927Z,100980.97
2022-11-30T03:56:01.012Z,100981.75
2022-11-30T03:58:28.023Z,100988.16
2022-11-30T04:01:06.164Z,100992.31
2022-11-30T04:03:33.564Z,100994.50
2022-11-30T04:06:00.718Z,100982.19
2022-11-30T04:08:27.851Z,100975.63
2022-11-30T04:10:55.836Z,100980.34
2022-11-30T04:13:23.673Z,100981.38
2022-11-30T04:15:51.093Z,100981.56
2022-11-30T04:18:18.508Z,100989.28
2022-11-30T04:20:45.802Z,100986.00
2022-11-30T04:23:13.230Z,100995.56
2022-11-30T04:25:40.834Z,100986.63
2022-11-30T04:28:08.850Z,100985.13
2022-11-30T04:30:36.091Z,100987.16
2022-11-30T04:33:03.494Z,100984.00
2022-11-30T04:35:30.462Z,100985.56
2022-11-30T04:37:57.232Z,100977.44
2022-11-30T04:40:24.197Z,100983.31
2022-11-30T04:42:50.864Z,100970.78
2022-11-30T04:45:17.743Z,100973.69
2022-11-30T04:47:44.416Z,100973.38
2022-11-30T04:50:11.304Z,100974.72
2022-11-30T04:52:38.032Z,100982.56
2022-11-30T04:55:04.982Z,100976.81
2022-11-30T04:57:32.119Z,100977.47
2022-11-30T04:59:58.816Z,100972.75
2022-11-30T05:02:25.691Z,100976.53
2022-11-30T05:04:52.539Z,100980.09
2022-11-30T05:07:19.431Z,100983.94
2022-11-30T05:09:46.343Z,100984.25
2022-11-30T05:12:13.092Z,100984.34
2022-11-30T05:14:40.091Z,100993.78
2022-11-30T05:17:06.801Z,100992.94
2022-11-30T05:19:33.458Z,100992.44
2022-11-30T05:22:00.179Z,100994.56
2022-11-30T05:24:26.914Z,100990.78
2022-11-30T05:26:53.614Z,100995.03
2022-11-30T05:29:20.354Z,100997.16
2022-11-30T05:31:47.343Z,100990.44
2022-11-30T05:34:14.098Z,100998.34
2022-11-30T05:36:40.975Z,101009.34
2022-11-30T05:39:07.681Z,101004.09
2022-11-30T05:41:34.381Z,101006.69
2022-11-30T05:44:01.142Z,100996.19
2022-11-30T05:46:27.914Z,101003.97
2022-11-30T05:48:54.646Z,101002.34
2022-11-30T05:51:21.775Z,100999.44
2022-11-30T05:53:48.734Z,101003.69
2022-11-30T05:56:16.767Z,101007.09
2022-11-30T05:58:44.069Z,101008.09
2022-11-30T06:01:27.585Z,101015.00
2022-11-30T06:03:54.445Z,101001.69
2022-11-30T06:06:21.155Z,101007.19
2022-11-30T06:08:48.574Z,101016.28
2022-11-30T06:11:15.744Z,101017.59
2022-11-30T06:13:42.490Z,101021.03
2022-11-30T06:16:10.208Z,101020.44
2022-11-30T06:18:37.359Z,101022.88
2022-11-30T06:21:05.261Z,101028.75
2022-11-30T06:23:32.610Z,101020.31
2022-11-30T06:25:59.260Z,101027.88
2022-11-30T06:28:26.163Z,101022.09
2022-11-30T06:30:52.960Z,101024.72
2022-11-30T06:33:22.970Z,101024.50
2022-11-30T06:35:49.908Z,101031.41
2022-11-30T06:38:19.725Z,101026.94
2022-11-30T06:40:46.552Z,101029.28
2022-11-30T06:43:13.329Z,101033.72
2022-11-30T06:45:40.288Z,101039.78
2022-11-30T06:48:07.135Z,101036.44
2022-11-30T06:50:34.665Z,101039.84
2022-11-30T06:53:01.608Z,101033.06
2022-11-30T06:55:28.615Z,101029.84
2022-11-30T06:57:55.472Z,101030.66
2022-11-30T07:00:22.322Z,101034.09
2022-11-30T07:02:53.515Z,101030.84
2022-11-30T07:05:20.401Z,101044.19
2022-11-30T07:07:49.078Z,101039.47
2022-11-30T07:10:20.075Z,101037.63
2022-11-30T07:12:48.591Z,101034.03
2022-11-30T07:15:19.155Z,101036.06
2022-11-30T07:17:46.059Z,101042.28
2022-11-30T07:20:19.830Z,101049.56
2022-11-30T07:22:46.825Z,101045.94
2022-11-30T07:25:32.433Z,101048.19
2022-11-30T07:27:59.346Z,101046.03
2022-11-30T07:30:26.085Z,101057.41
2022-11-30T07:32:56.536Z,101050.81
2022-11-30T07:35:23.559Z,101042.81
2022-11-30T07:37:54.757Z,101038.97
2022-11-30T07:40:24.090Z,101031.44
2022-11-30T07:42:55.975Z,101034.44
2022-11-30T07:45:22.917Z,101041.00
2022-11-30T07:47:49.929Z,101044.47
2022-11-30T07:50:16.652Z,101050.06
2022-11-30T07:52:48.435Z,101056.44
2022-11-30T07:55:25.478Z,101051.63
2022-11-30T07:57:53.390Z,101054.50
2022-11-30T08:00:20.384Z,101060.59
2022-11-30T08:02:50.054Z,101058.88
2022-11-30T08:05:24.532Z,101055.97
2022-11-30T08:07:52.701Z,101051.50
2022-11-30T08:10:21.016Z,101047.31
2022-11-30T08:12:48.364Z,101055.91
2022-11-30T08:15:21.094Z,101053.31
2022-11-30T08:17:50.400Z,101055.41
2022-11-30T08:20:17.358Z,101046.56
2022-11-30T08:22:51.423Z,101052.34
2022-11-30T08:25:18.350Z,101057.87
2022-11-30T08:27:45.282Z,101054.72
2022-11-30T08:30:15.744Z,101048.19
2022-11-30T08:32:51.222Z,101047.88
2022-11-30T08:35:18.453Z,101044.69
2022-11-30T08:37:45.569Z,101039.03
2022-11-30T08:40:14.820Z,101044.06
2022-11-30T08:42:45.707Z,101039.41
2022-11-30T08:45:12.757Z,101047.97
2022-11-30T08:47:42.564Z,101052.59
2022-11-30T08:50:11.461Z,101056.66
2022-11-30T08:52:39.355Z,101059.06
2022-11-30T08:55:08.662Z,101058.97
2022-11-30T08:57:35.549Z,101050.59
2022-11-30T09:00:04.049Z,101062.84
2022-11-30T09:02:35.047Z,101057.72
2022-11-30T09:05:09.473Z,101055.81
2022-11-30T09:07:37.537Z,101055.31
2022-11-30T09:10:04.476Z,101057.06
2022-11-30T09:12:34.436Z,101062.72
2022-11-30T09:15:01.415Z,101060.50
2022-11-30T09:17:28.746Z,101056.75
2022-11-30T09:19:56.105Z,101052.72
2022-11-30T09:22:22.987Z,101057.69
2022-11-30T09:24:50.550Z,101043.06
2022-11-30T09:27:17.770Z,101043.37
2022-11-30T09:29:48.025Z,101040.87
2022-11-30T09:32:15.126Z,101043.28
2022-11-30T09:34:41.982Z,101038.50
2022-11-30T09:37:16.612Z,101041.03
2022-11-30T09:39:43.526Z,101043.72
2022-11-30T09:42:29.354Z,101050.84
2022-11-30T09:45:03.852Z,101039.31
2022-11-30T09:47:44.101Z,101045.44
2022-11-30T09:50:13.317Z,101036.19
2022-11-30T09:52:44.774Z,101044.81
2022-11-30T09:55:17.709Z,101042.22
2022-11-30T09:57:55.622Z,101033.22
2022-11-30T10:00:30.587Z,101036.41
2022-11-30T10:03:01.916Z,101026.09
2022-11-30T10:05:28.900Z,101039.88
2022-11-30T10:08:34.117Z,101027.09
2022-11-30T10:11:17.618Z,101033.69
2022-11-30T10:13:54.450Z,101027.22
2022-11-30T10:16:42.157Z,101023.87
2022-11-30T10:19:15.799Z,101024.63
2022-11-30T10:21:52.533Z,101025.44
2022-11-30T10:24:22.446Z,101027.09
2022-11-30T10:27:03.267Z,101020.56
2022-11-30T10:29:32.414Z,101016.94
2022-11-30T10:32:02.171Z,101013.50
2022-11-30T10:34:36.176Z,101007.50
2022-11-30T10:37:11.559Z,101014.06
2022-11-30T10:40:07.340Z,101015.53
2022-11-30T10:42:51.594Z,101009.22
2022-11-30T10:45:22.758Z,101007.78
2022-11-30T10:48:00.369Z,101003.09
2022-11-30T10:50:29.410Z,101001.50
2022-11-30T10:53:00.107Z,100996.84
2022-11-30T10:55:31.864Z,100997.09
2022-11-30T10:58:07.564Z,100997.81
2022-11-30T11:01:06.261Z,100997.44
2022-11-30T11:03:31.297Z,101003.91
2022-11-30T11:06:19.048Z,100996.53
2022-11-30T11:08:48.540Z,100995.53
2022-11-30T11:11:46.329Z,100990.69
2022-11-30T11:14:24.358Z,100989.50
2022-11-30T11:17:13.998Z,100994.53
2022-11-30T11:19:45.875Z,100992.41
2022-11-30T11:22:26.282Z,100980.50
2022-11-30T11:25:16.346Z,100984.28
2022-11-30T11:27:47.674Z,100977.84
2022-11-30T11:30:26.805Z,100982.44
2022-11-30T11:33:01.097Z,100976.34
2022-11-30T11:35:34.210Z,100974.91
2022-11-30T11:38:01.106Z,100969.13
2022-11-30T11:40:27.923Z,100971.53
2022-11-30T11:42:58.364Z,100960.69
2022-11-30T11:45:26.633Z,100964.78
2022-11-30T11:48:04.141Z,100966.44
2022-11-30T11:53:23.891Z,100970.28
2022-11-30T11:55:56.923Z,100963.31
2022-11-30T11:58:37.376Z,100960.22
2022-11-30T12:01:38.111Z,100954.81
2022-11-30T12:04:03.302Z,100954.88
2022-11-30T12:06:33.803Z,100947.81
2022-11-30T12:09:05.556Z,100956.59
2022-11-30T12:11:41.607Z,100958.94
2022-11-30T12:14:12.737Z,100960.44
2022-11-30T12:17:01.745Z,100956.84
2022-11-30T12:19:47.751Z,100958.34
2022-11-30T12:22:26.747Z,100955.66
2022-11-30T12:25:05.491Z,100947.97
2022-11-30T12:27:47.902Z,100952.00
2022-11-30T12:30:20.318Z,100963.66
2022-11-30T12:32:53.294Z,100950.16
2022-11-30T12:35:30.547Z,100940.62
2022-11-30T12:38:02.354Z,100951.00
2022-11-30T12:40:48.310Z,100950.13
2022-11-30T12:43:42.494Z,100952.37
2022-11-30T12:46:09.555Z,100949.44
2022-11-30T12:48:47.777Z,100954.00
2022-11-30T12:51:25.114Z,100943.47
2022-11-30T12:54:04.741Z,100943.69
2022-11-30T12:56:45.728Z,100942.31
2022-11-30T12:59:26.266Z,100931.63
2022-11-30T13:02:16.182Z,100926.16
2022-11-30T13:04:46.683Z,100936.75
2022-11-30T13:07:13.915Z,100937.41
2022-11-30T13:09:52.316Z,100931.53
2022-11-30T13:12:28.191Z,100942.66
2022-11-30T13:14:58.881Z,100936.94
2022-11-30T13:17:26.837Z,100942.34
2022-11-30T13:19:56.529Z,100944.09
2022-11-30T13:22:27.304Z,100943.22
2022-11-30T13:25:03.976Z,100931.91
2022-11-30T13:27:40.566Z,100930.16
2022-11-30T13:30:18.260Z,100934.63
2022-11-30T13:33:00.558Z,100929.53
2022-11-30T13:35:30.409Z,100934.03
2022-11-30T13:38:37.390Z,100943.47
2022-11-30T13:41:05.922Z,100956.97
2022-11-30T13:43:40.763Z,100960.62
2022-11-30T13:46:15.234Z,100953.59
2022-11-30T13:48:43.217Z,100951.13
2022-11-30T13:51:10.329Z,100950.16
2022-11-30T13:53:40.036Z,100954.31
2022-11-30T13:56:08.228Z,100950.88
2022-11-30T13:58:35.462Z,100945.00
2022-11-30T14:01:02.657Z,100948.53
2022-11-30T14:03:31.938Z,100947.16
2022-11-30T14:06:00.104Z,100942.09
2022-11-30T14:08:39.266Z,100943.66
2022-11-30T14:11:32.490Z,100924.59
2022-11-30T14:14:19.329Z,100923.94
2022-11-30T14:16:46.257Z,100925.56
2022-11-30T14:19:15.629Z,100928.37
2022-11-30T14:21:44.661Z,100930.41
2022-11-30T14:24:17.778Z,100932.25
2022-11-30T14:26:46.208Z,100932.41
2022-11-30T14:29:23.249Z,100939.00
2022-11-30T14:32:04.562Z,100949.03
2022-11-30T14:34:37.433Z,100943.62
2022-11-30T14:37:27.516Z,100947.41
2022-11-30T14:39:57.555Z,100953.28
2022-11-30T14:42:30.175Z,100949.69
2022-11-30T14:44:57.442Z,100942.59
2022-11-30T14:47:28.627Z,100935.78
2022-11-30T14:49:57.433Z,100940.16
2022-11-30T14:52:27.490Z,100938.87
2022-11-30T14:55:07.148Z,100936.88
2022-11-30T14:57:42.837Z,100937.34
2022-11-30T15:00:16.677Z,100942.66
2022-11-30T15:02:43.919Z,100930.44
2022-11-30T15:05:16.904Z,100931.97
2022-11-30T15:07:44.710Z,100932.84
2022-11-30T15:10:15.674Z,100941.94
2022-11-30T15:12:45.070Z,100935.09
2022-11-30T15:15:15.003Z,100937.28
2022-11-30T15:17:49.478Z,100930.56
2022-11-30T15:20:21.186Z,100941.50
2022-11-30T15:22:48.561Z,100938.31
2022-11-30T15:25:15.707Z,100935.69
2022-11-30T15:27:43.284Z,100942.88
2022-11-30T15:30:14.071Z,100935.94
2022-11-30T15:32:43.713Z,100939.09
2022-11-30T15:35:17.811Z,100948.94
2022-11-30T15:37:44.566Z,100953.31
2022-11-30T15:40:21.833Z,100959.50
2022-11-30T15:42:49.466Z,100956.78
2022-11-30T15:45:19.654Z,100956.28
2022-11-30T15:47:46.428Z,100972.63
2022-11-30T15:50:31.329Z,100972.78
2022-11-30T15:52:59.441Z,100971.44
2022-11-30T15:55:46.243Z,100962.56
2022-11-30T15:58:30.072Z,100975.28
2022-11-30T16:01:17.359Z,100983.16
2022-11-30T16:03:56.335Z,100974.84
2022-11-30T16:06:23.949Z,100976.22
2022-11-30T16:08:51.152Z,100975.78
2022-11-30T16:11:18.347Z,100971.16
2022-11-30T16:13:45.028Z,100978.28
2022-11-30T16:16:12.708Z,100981.03
2022-11-30T16:18:39.476Z,100977.59
2022-11-30T16:21:06.442Z,100981.88
2022-11-30T16:23:34.289Z,100982.09
2022-11-30T16:26:00.953Z,100980.47
2022-11-30T16:28:27.599Z,100979.66
2022-11-30T16:30:56.218Z,100981.38
2022-11-30T16:33:23.821Z,100970.09
2022-11-30T16:35:54.000Z,100974.53
2022-11-30T16:38:21.076Z,100971.81
2022-11-30T16:40:47.951Z,100971.84
2022-11-30T16:43:14.917Z,100967.53
2022-11-30T16:45:42.473Z,100968.38
2022-11-30T16:48:11.396Z,100970.16
2022-11-30T16:50:38.449Z,100960.50
2022-11-30T16:53:05.373Z,100957.00
2022-11-30T16:55:35.040Z,100961.41
2022-11-30T16:58:01.888Z,100958.78
2022-11-30T17:00:28.668Z,100963.19
2022-11-30T17:03:00.267Z,100961.47
2022-11-30T17:05:27.448Z,100977.13
2022-11-30T17:07:55.007Z,100972.53
2022-11-30T17:10:21.873Z,100974.47
2022-11-30T17:12:49.591Z,100977.16
2022-11-30T17:15:17.783Z,100983.31
2022-11-30T17:17:44.831Z,100989.16
2022-11-30T17:20:12.030Z,100984.78
2022-11-30T17:22:40.024Z,100985.63
2022-11-30T17:25:08.164Z,100987.41
2022-11-30T17:27:35.197Z,100994.88
2022-11-30T17:30:01.912Z,100993.19
2022-11-30T17:32:29.213Z,100981.97
2022-11-30T17:34:55.946Z,100991.62
2022-11-30T17:37:23.459Z,100991.69
2022-11-30T17:39:50.720Z,100989.94
2022-11-30T17:42:17.683Z,100987.41
2022-11-30T17:44:44.446Z,100991.44
2022-11-30T17:47:12.187Z,100988.91
2022-11-30T17:49:38.954Z,100992.38
2022-11-30T17:52:05.670Z,100988.69
2022-11-30T17:54:32.321Z,100991.91
2022-11-30T17:56:59.012Z,100988.41
2022-11-30T17:59:25.793Z,100983.16
2022-11-30T18:01:52.633Z,100986.94
2022-11-30T18:04:19.446Z,100980.16
2022-11-30T18:06:46.220Z,100981.03
2022-11-30T18:09:13.014Z,100983.53
2022-11-30T18:11:39.899Z,100992.25
2022-11-30T18:14:06.667Z,100983.59
2022-11-30T18:16:36.633Z,100987.00
2022-11-30T18:19:07.680Z,100994.06
2022-11-30T18:21:34.651Z,100999.22
2022-11-30T18:24:01.383Z,100993.19
2022-11-30T18:26:28.200Z,100994.91
2022-11-30T18:28:56.711Z,101003.50
2022-11-30T18:31:23.493Z,101005.47
2022-11-30T18:33:54.429Z,101008.00
2022-11-30T18:36:21.165Z,101003.22
2022-11-30T18:38:47.911Z,100995.09
2022-11-30T18:41:14.765Z,101001.25
2022-11-30T18:43:41.467Z,101003.91
2022-11-30T18:46:09.413Z,101014.19
2022-11-30T18:48:36.746Z,101003.13
2022-11-30T18:51:13.091Z,101007.47
2022-11-30T18:53:39.979Z,101002.91
2022-11-30T18:56:10.051Z,101009.38
2022-11-30T18:58:36.713Z,101007.06
2022-11-30T19:01:08.399Z,101008.69
2022-11-30T19:03:35.462Z,101013.69
2022-11-30T19:06:03.003Z,101010.37
2022-11-30T19:08:29.687Z,101006.22
2022-11-30T19:11:04.883Z,101008.22
2022-11-30T19:13:32.582Z,101010.72
2022-11-30T19:16:03.129Z,101014.06
2022-11-30T19:18:30.007Z,101017.66
2022-11-30T19:20:57.293Z,101006.44
2022-11-30T19:23:24.461Z,101012.72
2022-11-30T19:25:51.190Z,101016.75
2022-11-30T19:28:18.168Z,101011.66
2022-11-30T19:30:45.057Z,101017.16
2022-11-30T19:33:13.177Z,101017.72
2022-11-30T19:35:40.422Z,101022.16
2022-11-30T19:38:07.089Z,101018.12
2022-11-30T19:40:33.823Z,101022.25
2022-11-30T19:43:00.514Z,101019.87
2022-11-30T19:45:27.339Z,101010.41
2022-11-30T19:47:54.062Z,101020.88
2022-11-30T19:50:21.375Z,101020.69
2022-11-30T19:53:22.611Z,101019.94
2022-11-30T19:55:49.435Z,101025.47
2022-11-30T19:58:16.112Z,101018.16
2022-11-30T20:00:45.491Z,101014.00
2022-11-30T20:03:12.234Z,101019.69
2022-11-30T20:05:39.175Z,101016.31
2022-11-30T20:08:06.231Z,101019.22
2022-11-30T20:10:32.983Z,101022.75
2022-11-30T20:12:59.735Z,101017.13
2022-11-30T20:15:26.451Z,101025.47
2022-11-30T20:17:53.388Z,101030.53
2022-11-30T20:20:20.230Z,101019.50
2022-11-30T20:22:47.746Z,101028.84
2022-11-30T20:25:14.840Z,101024.44
2022-11-30T20:27:49.567Z,101026.19
2022-11-30T20:30:16.796Z,101030.53
2022-11-30T20:32:45.623Z,101032.44
2022-11-30T20:35:12.494Z,101034.06
2022-11-30T20:37:39.647Z,101032.97
2022-11-30T20:40:06.791Z,101039.44
2022-11-30T20:42:33.702Z,101029.84
2022-11-30T20:45:00.433Z,101030.25
2022-11-30T20:47:29.900Z,101041.97
2022-11-30T20:50:00.207Z,101046.59
2022-11-30T20:52:27.462Z,101045.91
2022-11-30T20:54:54.219Z,101038.91
2022-11-30T20:57:20.954Z,101044.03
2022-11-30T20:59:47.640Z,101044.16
2022-11-30T21:02:14.425Z,101044.72
2022-11-30T21:04:41.191Z,101041.63
2022-11-30T21:07:07.940Z,101045.34
2022-11-30T21:09:34.603Z,101052.44
2022-11-30T21:12:01.371Z,101052.97
2022-11-30T21:14:28.222Z,101050.09
2022-11-30T21:16:54.971Z,101056.66
2022-11-30T21:19:21.756Z,101048.06
2022-11-30T21:21:48.446Z,101040.25
2022-11-30T21:24:15.153Z,101046.00
2022-11-30T21:26:42.940Z,101041.56
2022-11-30T21:29:14.477Z,101036.50
2022-11-30T21:31:41.369Z,101039.09
2022-11-30T21:34:08.516Z,101046.81
2022-11-30T21:36:35.245Z,101037.56
2022-11-30T21:39:06.150Z,101035.72
2022-11-30T21:41:34.181Z,101044.53
2022-11-30T21:44:01.029Z,101036.81
2022-11-30T21:46:27.938Z,101031.94
2022-11-30T21:48:54.703Z,101029.03
2022-11-30T21:51:23.056Z,101029.03
2022-11-30T21:53:51.133Z,101034.94
2022-11-30T21:56:19.347Z,101034.53
2022-11-30T21:58:46.976Z,101033.03
2022-11-30T22:01:14.827Z,101042.94
2022-11-30T22:03:41.924Z,101039.69
2022-11-30T22:06:09.577Z,101028.78
2022-11-30T22:08:36.760Z,101030.13
2022-11-30T22:11:08.489Z,101031.13
2022-11-30T22:13:35.529Z,101033.91
2022-11-30T22:16:12.804Z,101038.19
2022-11-30T22:18:39.752Z,101045.66
2022-11-30T22:21:07.744Z,101051.31
2022-11-30T22:23:35.194Z,101042.31
2022-11-30T22:26:12.467Z,101042.47
2022-11-30T22:28:40.048Z,101047.84
2022-11-30T22:31:07.866Z,101045.94
2022-11-30T22:33:35.540Z,101050.03
2022-11-30T22:36:02.898Z,101038.88
2022-11-30T22:38:29.976Z,101041.22
2022-11-30T22:41:03.740Z,101044.94
2022-11-30T22:43:30.365Z,101038.38
2022-11-30T22:46:02.094Z,101035.91
2022-11-30T22:48:31.856Z,101031.88
2022-11-30T22:51:02.195Z,101026.59
2022-11-30T22:53:28.972Z,101031.88
2022-11-30T22:56:00.336Z,101023.47
2022-11-30T22:58:27.130Z,101035.03
2022-11-30T23:00:54.007Z,101017.53
2022-11-30T23:03:23.754Z,101016.59
2022-11-30T23:05:50.584Z,101017.94
2022-11-30T23:08:17.401Z,101014.88
2022-11-30T23:10:44.213Z,101013.78
2022-11-30T23:13:11.055Z,101011.69
2022-11-30T23:15:37.822Z,101014.13
2022-11-30T23:18:04.600Z,101002.69
2022-11-30T23:20:31.272Z,101015.41
2022-11-30T23:22:57.978Z,101008.72
2022-11-30T23:25:24.728Z,101008.72
2022-11-30T23:27:51.426Z,101017.84
2022-11-30T23:30:18.145Z,101017.25
2022-11-30T23:32:44.735Z,101025.22
2022-11-30T23:35:11.723Z,101016.44
2022-11-30T23:37:38.340Z,101019.84
2022-11-30T23:40:05.516Z,101021.91
2022-11-30T23:42:32.148Z,101023.19
2022-11-30T23:45:01.233Z,101017.75
2022-11-30T23:47:28.087Z,101013.88
2022-11-30T23:49:54.835Z,101019.91
2022-11-30T23:52:21.583Z,101011.88
2022-11-30T23:54:48.299Z,101022.94
2022-11-30T23:57:14.932Z,101019.28
2022-11-30T23:59:41.718Z,101011.47
